Tiempo atmosférico en la estación meteorológica de Monforte De Lemos, Lugo (291 m.)



Fecha
DESCASC
Temp. máxima en grados centígrados (hora)
DESCASC
Temp. mínima en grados centígrados (hora)
DESCASC
Temp. media en grados centígrados
DESCASC
Racha de viento máxima en m/sg (hora)
DESCASC
Velocidad máxima media en intervalos de 10 minutos(hora)
DESCASC
Precipitaciones diarias en mm
DESCASC
Precipitaciones de 00:00 a 06:00 en mm
DESCASC
Precipitaciones de 06:00 a 12:00 en mm
DESCASC
Precipitaciones de 12:00 a 18:00 en mm
DESCASC
Precipitaciones de 18:00 a 24:00 en mm
DESCASC
24-09-2020 19.4 (13:00) 12.6 (23:59) 16 8.61 (12:50) 4.17 (18:10) 0 0 0 0 0
23-09-2020 22 (15:20) 15.4 (00:00) 18.7 7.5 (17:10) 4.17 (16:40) 7 7 0 0 0
22-09-2020 25.7 (16:40) 13.2 (00:00) 19.5 10 (18:40) 2.5 (18:50) 2.8 0 0 0 2.8
21-09-2020 24.9 (16:50) 13.6 (00:00) 19.3 5.83 (15:00) 2.5 (15:10) 0 0 0 0 0
20-09-2020 -- (--) -- (--) -- -- (--) -- (--) -- 1.8 -- 0 0
19-09-2020 25.2 (16:30) 14.9 (00:00) 20.1 0 (16:20) 0 (00:10) 1 0 0.8 0 0.2
18-09-2020 25 (15:50) 15.9 (00:00) 20.4 4.17 (00:40) 1.39 (00:40) 2.2 2.2 0 0 0
17-09-2020 29.5 (16:00) 16.2 (00:00) 22.9 7.22 (12:30) 2.5 (16:40) 12.4 0 0 0 12.4
16-09-2020 31.6 (15:10) 10 (00:00) 20.8 4.44 (15:20) 1.67 (15:20) 0 0 0 0 0
15-09-2020 29.3 (16:30) 11.5 (00:00) 20.4 7.5 (14:40) 3.33 (14:40) 0 0 0 0 0
14-09-2020 29.4 (15:30) 15.5 (00:00) 22.4 8.06 (14:50) 3.06 (16:30) 0.6 0 0 0.4 0.2
13-09-2020 35.1 (17:00) 11.8 (00:00) 23.4 6.67 (17:40) 3.33 (18:00) 0 0 0 0 0
12-09-2020 36 (17:00) 13.6 (00:00) 24.8 6.11 (19:40) 2.5 (19:50) 0 0 0 0 0
11-09-2020 34.9 (17:00) 12 (00:00) 23.5 4.44 (17:20) 1.67 (16:40) 0 0 0 0 0
10-09-2020 33.6 (16:10) 15.6 (00:00) 24.6 5.83 (19:50) 2.5 (19:40) 0 0 0 0 0
09-09-2020 33.3 (15:50) 8.5 (00:00) 20.9 5.28 (17:20) 2.5 (17:20) 0 0 0 0 0
08-09-2020 31.3 (16:50) 8.6 (00:00) 19.9 4.17 (17:50) 1.67 (18:30) 0 0 0 0 0
07-09-2020 29.9 (16:30) 7.7 (08:20) 18.8 7.22 (19:20) 3.06 (18:50) 0 0 0 0 0
06-09-2020 29.1 (16:10) 11.9 (00:00) 20.5 9.17 (18:40) 3.61 (18:40) 0 0 0 0 0
05-09-2020 30.7 (15:20) 14.8 (00:00) 22.8 8.89 (17:10) 4.17 (17:10) 0 0 0 0 0
04-09-2020 36 (16:20) 10.6 (00:00) 23.3 6.67 (17:00) 3.61 (20:30) 0 0 0 0 0
03-09-2020 34.6 (16:20) 10.6 (00:00) 22.6 4.44 (15:00) 1.67 (19:00) 0 0 0 0 0
02-09-2020 30.4 (17:00) 8.8 (00:00) 19.6 5.56 (19:00) 2.5 (19:10) 0 0 0 0 0
01-09-2020 28.5 (16:10) 12.1 (00:00) 20.3 8.06 (19:00) 3.33 (18:20) 0 0 0 0 0
31-08-2020 28.2 (16:20) 5 (00:00) 16.6 6.67 (17:20) 1.94 (17:00) 0 0 0 0 0
30-08-2020 23.4 (15:20) 9.5 (00:00) 16.4 7.78 (19:00) 3.61 (19:00) 0 0 0 0 0
29-08-2020 22.1 (15:30) 12.5 (00:00) 17.3 10.28 (17:20) 4.72 (18:00) 1.8 1.4 0 0.4 0
28-08-2020 24.2 (16:50) 13.9 (00:00) 19.1 8.06 (17:20) 3.89 (18:10) 0 0 0 0 0

Gráficas

Temp. máximas Temp. mínimas Temp. medias Precipitaciones Rachas de viento máximas Velocidades máximas media en intervalos de 10 minutos

Datos horarios

Fecha y hora oficial Temperatura (ºC) Velocidad del viento (km/h) Dirección del viento Racha (km/h) Dirección de racha Precipitación (mm) Presión (hPa) Tendencia (hPa) Humedad (%)
2020-09-26 23:00:00 15 0 Calma 6 Noroeste 0 -- -- 92
2020-09-26 22:00:00 15.3 3 Noroeste 6 Oeste 0.2 -- -- 92
2020-09-26 21:00:00 15.3 3 Sudoeste 9 Sudoeste 0 -- -- 91
2020-09-26 20:00:00 15.5 2 Oeste 15 Sudoeste 0 -- -- 89
2020-09-26 19:00:00 15.3 0 Calma 12 Sudoeste 0.2 -- -- 90
2020-09-26 18:00:00 15.3 4 Sudoeste 13 Sudoeste 0 -- -- 87
2020-09-26 17:00:00 15.1 0 Calma 13 Sudoeste 0 -- -- 87
2020-09-26 16:00:00 15 0 Calma 13 Sudoeste 0 -- -- 88
2020-09-26 15:00:00 14.5 3 Oeste 9 Sudoeste 0.2 -- -- 87
2020-09-26 14:00:00 14.6 3 Oeste 12 Sudoeste 0 -- -- 85
2020-09-26 13:00:00 14.2 0 Calma 11 Sudoeste 0 -- -- 83
2020-09-26 12:00:00 13.6 0 Calma 8 Oeste 0 -- -- 82
2020-09-26 11:00:00 12.7 0 Calma 5 Sudoeste 0 -- -- 84
2020-09-26 10:00:00 11.6 0 Calma 4 Sur 0 -- -- 89
2020-09-26 09:00:00 11.1 0 Calma 4 Nordeste 0 -- -- 90
2020-09-26 08:00:00 11 0 Calma 4 Norte 0 -- -- 90
2020-09-26 07:00:00 10.9 0 Calma 3 Nordeste 0 -- -- 91
2020-09-26 06:00:00 10.9 0 Calma 2 Norte 0 -- -- 91
2020-09-26 05:00:00 11.1 0 Calma 2 Norte 0 -- -- 89
2020-09-26 04:00:00 11.1 0 Calma 4 Norte 0 -- -- 88
2020-09-26 03:00:00 11.1 0 Calma 3 Norte 0 -- -- 88
2020-09-26 02:00:00 11.7 0 Calma 5 Noroeste 0 -- -- 85
2020-09-26 01:00:00 11.9 0 Calma 4 Noroeste 0 -- -- 83
2020-09-26 00:00:00 12 0 Calma 3 Norte 0 -- -- 83
2020-09-25 23:00:00 12.4 0 Calma 5 Noroeste 0 -- -- 78
2020-09-25 22:00:00 13.1 4 Noroeste 13 Norte 0 -- -- 73
2020-09-25 21:00:00 13.3 0 Calma 8 Noroeste 0 -- -- 74
2020-09-25 20:00:00 15 6 Noroeste 23 Noroeste 0 -- -- 65
2020-09-25 19:00:00 15.6 7 Norte 23 Noroeste 0 -- -- 62
2020-09-25 18:00:00 16.3 10 Noroeste 26 Noroeste 0 -- -- 59
2020-09-25 17:00:00 19.9 13 Noroeste 32 Noroeste 0 -- -- 47
2020-09-25 16:00:00 19.4 12 Noroeste 27 Noroeste 0 -- -- 48
2020-09-25 15:00:00 19.7 12 Noroeste 29 Noroeste 0 -- -- 48
2020-09-25 14:00:00 18.4 11 Noroeste 26 Norte 0 -- -- 56
2020-09-25 13:00:00 15.4 7 Noroeste 24 Noroeste 0 -- -- 80
2020-09-25 12:00:00 15.4 9 Noroeste 21 Noroeste 0 -- -- 74
2020-09-25 11:00:00 12.8 2 Noroeste 9 Nordeste 0 -- -- 83
2020-09-25 10:00:00 8.9 0 Calma 4 Sudeste 0 -- -- 96
2020-09-25 09:00:00 7.8 0 Calma 5 Norte 0 -- -- 95
2020-09-25 08:00:00 8 0 Calma 7 Sudoeste 0 -- -- 91
2020-09-25 07:00:00 9 0 Calma 6 Sudoeste 0 -- -- 90
2020-09-25 06:00:00 9.6 0 Calma 9 Noroeste 0 -- -- 91
2020-09-25 05:00:00 9.1 0 Calma 5 Noroeste 0 -- -- 94
2020-09-25 04:00:00 9.1 0 Calma 3 Sudoeste 0 -- -- 90
2020-09-25 03:00:00 10.4 0 Calma 4 Noroeste 0 -- -- 89
2020-09-25 02:00:00 11.7 0 Calma 0 Calma 0 -- -- 90
2020-09-25 01:00:00 12.3 0 Calma 6 Noroeste 0 -- -- 89
2020-09-25 00:00:00 12.6 0 Calma 10 Sudoeste 0 -- -- 86
2020-09-24 23:00:00 12.9 3 Sudoeste 13 Sudoeste 0 -- -- 85
2020-09-24 22:00:00 13.4 4 Oeste 18 Sudoeste 0 -- -- 88
2020-09-24 21:00:00 14.1 5 Sudoeste 19 Sudoeste 0 -- -- 85
2020-09-24 20:00:00 15.1 7 Oeste 23 Sudoeste 0 -- -- 81
2020-09-24 19:00:00 16.4 10 Sudoeste 30 Sudoeste 0 -- -- 70
2020-09-24 18:00:00 16.8 14 Sudoeste 29 Sudoeste 0 -- -- 68
2020-09-24 17:00:00 16.9 6 Oeste 27 Sudoeste 0 -- -- 71
2020-09-24 16:00:00 18 14 Sudoeste 24 Sudoeste 0 -- -- 66
2020-09-24 15:00:00 17.1 7 Noroeste 29 Sudoeste 0 -- -- 73
2020-09-24 14:00:00 17.4 5 Oeste 28 Sudoeste 0 -- -- 68
2020-09-24 13:00:00 19.4 9 Oeste 31 Sudoeste 0 -- -- 59
2020-09-24 12:00:00 18.7 6 Oeste 27 Sudoeste 0 -- -- 60
2020-09-24 11:00:00 16.6 5 Oeste 21 Sudoeste 0 -- -- 67
2020-09-24 10:00:00 13.6 0 Calma 5 Noroeste 0 -- -- 92
2020-09-24 09:00:00 13.4 0 Calma -- -- 0 -- -- 93
2020-09-24 08:00:00 13.7 0 Calma 7 Sudoeste 0 -- -- 91
2020-09-24 07:00:00 14.2 4 Sudoeste 10 Sudoeste 0 -- -- 89
2020-09-24 06:00:00 14.9 0 Calma 2 Oeste 0 -- -- 88
2020-09-24 05:00:00 15.1 0 Calma 5 Sudoeste 0 -- -- 86
2020-09-24 04:00:00 15.4 0 Calma 11 Sudoeste 0 -- -- 84
2020-09-24 03:00:00 15.5 4 Sudoeste 14 Sudoeste 0 -- -- 83
2020-09-24 02:00:00 15.4 0 Calma 8 Sudoeste 0 -- -- 85
2020-09-24 01:00:00 15.5 0 Calma 0 Calma 0 -- -- 87
2020-09-24 00:00:00 15.4 0 Calma 4 Sudoeste 0 -- -- 85
2020-09-23 23:00:00 15.8 0 Calma 9 Sudoeste 0 -- -- 81
2020-09-23 22:00:00 16.8 3 Sudoeste 13 Sudoeste 0 -- -- 78
2020-09-23 21:00:00 17.9 2 Sudoeste 13 Noroeste 0 -- -- 74
2020-09-23 20:00:00 19.1 2 Oeste 15 Noroeste 0 -- -- 73
2020-09-23 19:00:00 20.2 5 Oeste 21 Sudoeste 0 -- -- 69
2020-09-23 18:00:00 21.1 7 Sudoeste 27 Sudoeste 0 -- -- 68
2020-09-23 17:00:00 21.2 7 Oeste 26 Sudoeste 0 -- -- 68
2020-09-23 16:00:00 20.7 10 Sudoeste 26 Sudoeste 0 -- -- 71
2020-09-23 15:00:00 21.7 4 Oeste 24 Sudoeste 0 -- -- 73
2020-09-23 14:00:00 20.7 3 Oeste 18 Sudoeste 0 -- -- 74
2020-09-23 13:00:00 20.2 6 Sudoeste 18 Sur 0 -- -- 74
2020-09-23 12:00:00 19.4 4 Sudoeste 10 Sudoeste 0 -- -- 84
2020-09-23 11:00:00 17.4 0 Calma 3 Oeste 0 -- -- 92
2020-09-23 10:00:00 16.6 0 Calma -- -- 0 -- -- 95
2020-09-23 09:00:00 16.1 0 Calma -- -- 0 -- -- 95
2020-09-23 08:00:00 15.9 0 Calma 3 Oeste 0 -- -- 94
2020-09-23 07:00:00 16.1 0 Calma 6 Oeste 0 -- -- 96
2020-09-23 06:00:00 16 0 Calma 3 Oeste 0 -- -- 95
2020-09-23 05:00:00 16.3 0 Calma 5 Oeste 2.2 -- -- 94
2020-09-23 04:00:00 16.6 0 Calma 4 Sudoeste 4.6 -- -- 94
2020-09-23 03:00:00 16.8 0 Calma 4 Sur 0.2 -- -- 92
2020-09-23 02:00:00 16.9 0 Calma 0 Calma 0 -- -- 93
2020-09-23 01:00:00 17.2 0 Calma 5 Sudoeste 0 -- -- 91
2020-09-23 00:00:00 17.4 0 Calma 4 Oeste 0 -- -- 91
2020-09-22 23:00:00 18.2 0 Calma 5 Oeste 2.8 -- -- 86
2020-09-22 22:00:00 18.8 0 Calma -- -- 0 -- -- 78
2020-09-22 21:00:00 19.6 0 Calma 13 Sudoeste 0 -- -- 73
2020-09-22 20:00:00 20.4 8 Sudoeste 20 Sudoeste 0 -- -- 66
2020-09-22 19:00:00 21.4 6 Oeste 36 Sudoeste 0 -- -- 60
2020-09-22 18:00:00 23.5 2 Oeste 15 Noroeste 0 -- -- 51
2020-09-22 17:00:00 25.3 4 Oeste 21 Sudoeste 0 -- -- 44
2020-09-22 16:00:00 24.9 8 Oeste 19 Sudoeste 0 -- -- 46
2020-09-22 15:00:00 23.5 2 Noroeste 16 Sudoeste 0 -- -- 54
2020-09-22 14:00:00 22.9 0 Calma 0 Calma 0 -- -- 58
2020-09-22 13:00:00 20.6 0 Calma 0 Calma 0 -- -- 65
2020-09-22 12:00:00 18.1 0 Calma 2 Sudeste 0 -- -- 74
2020-09-22 11:00:00 15.4 0 Calma -- -- 0 -- -- 89
2020-09-22 10:00:00 14.3 0 Calma 2 Noroeste 0 -- -- 90
2020-09-22 09:00:00 13.7 0 Calma -- -- 0 -- -- 92
2020-09-22 08:00:00 13.6 0 Calma -- -- 0 -- -- 92
2020-09-22 07:00:00 13.3 0 Calma -- -- 0 -- -- 93
2020-09-22 06:00:00 13.5 0 Calma -- -- 0 -- -- 88
2020-09-22 05:00:00 14.4 0 Calma -- -- 0 -- -- 90
2020-09-22 04:00:00 14.4 0 Calma -- -- -- -- -- 89
2020-09-22 03:00:00 15.1 0 Calma -- -- 0 -- -- 87
2020-09-22 02:00:00 15.5 0 Calma -- -- 0 -- -- 86
2020-09-22 01:00:00 16.3 0 Calma -- -- 0 -- -- 84
2020-09-22 00:00:00 17 0 Calma -- -- 0 -- -- 81
2020-09-21 23:00:00 17 0 Calma -- -- 0 -- -- 80
2020-09-21 22:00:00 18.2 0 Calma -- -- 0 -- -- 76
2020-09-21 21:00:00 19.8 0 Calma -- -- 0 -- -- 67
2020-09-21 20:00:00 21.3 0 Calma 0 Calma 0 -- -- 60
2020-09-21 19:00:00 23 0 Calma 0 Calma 0 -- -- 51
2020-09-21 18:00:00 23.3 0 Calma 0 Calma 0 -- -- 46
2020-09-21 17:00:00 24.9 0 Calma 8 Este 0 -- -- 44
2020-09-21 16:00:00 24.7 3 Sudoeste 17 Sudoeste 0 -- -- 45
2020-09-21 15:00:00 24 8 Sudoeste 21 Sudoeste 0 -- -- 46
2020-09-21 14:00:00 22.7 5 Sur 14 Sudoeste 0 -- -- 55
2020-09-21 13:00:00 21 4 Sur 10 Sur 0 -- -- 70
2020-09-21 12:00:00 18.4 0 Calma 0 Calma 0 -- -- 81
2020-09-21 11:00:00 14.9 0 Calma 0 Calma 0 -- -- 94
2020-09-21 10:00:00 13.8 0 Calma -- -- 0 -- -- 96
2020-09-21 09:00:00 13.6 0 Calma -- -- 0 -- -- 92
2020-09-21 08:00:00 14.2 0 Calma -- -- 0 -- -- 93
2020-09-21 07:00:00 14.4 0 Calma -- -- 0 -- -- 92
2020-09-21 06:00:00 15.2 0 Calma -- -- 0 -- -- 92
2020-09-21 05:00:00 15.4 0 Calma -- -- 0 -- -- 92
2020-09-21 04:00:00 15.7 0 Calma -- -- 0 -- -- 90
2020-09-21 03:00:00 16.2 0 Calma -- -- 0 -- -- 89
2020-09-21 02:00:00 16.4 0 Calma -- -- 0 -- -- 87
2020-09-21 01:00:00 16.8 0 Calma -- -- 0 -- -- 86
2020-09-21 00:00:00 17.5 0 Calma -- -- 0 -- -- 83
2020-09-20 23:00:00 17.8 0 Calma -- -- 0 -- -- 82
2020-09-20 22:00:00 18.2 0 Calma -- -- 0 -- -- 83
2020-09-20 21:00:00 18.5 0 Calma -- -- 0 -- -- 83
2020-09-20 20:00:00 18.8 0 Calma -- -- 0 -- -- 84
2020-09-20 19:00:00 19.4 0 Calma 0 Calma 0 -- -- 81
2020-09-20 18:00:00 20.5 0 Calma 0 Calma 0 -- -- 79
2020-09-20 17:00:00 21.2 0 Calma 0 Calma 0 -- -- 78
2020-09-20 16:00:00 -- -- -- -- -- -- -- -- --
2020-09-20 15:00:00 -- -- -- -- -- -- -- -- --
2020-09-20 14:00:00 -- -- -- -- -- -- -- -- --
2020-09-20 13:00:00 -- -- -- -- -- -- -- -- --
2020-09-20 12:00:00 -- -- -- -- -- -- -- -- --
2020-09-20 11:00:00 16.7 0 Calma 0 Calma 0.2 -- -- 93
2020-09-20 10:00:00 16.2 0 Calma -- -- 0.2 -- -- 94
2020-09-20 09:00:00 16.1 0 Calma -- -- 0.8 -- -- 94
2020-09-20 08:00:00 16.1 0 Calma -- -- 0.4 -- -- 94
2020-09-20 07:00:00 16.1 0 Calma -- -- 0.6 -- -- 94
2020-09-20 06:00:00 16.2 0 Calma -- -- 0.2 -- -- 93
2020-09-20 05:00:00 16.4 0 Calma -- -- 1.6 -- -- 93
2020-09-20 04:00:00 16.6 0 Calma -- -- 0 -- -- 92
2020-09-20 03:00:00 16.8 0 Calma -- -- 0 -- -- 92
2020-09-20 02:00:00 17 0 Calma -- -- 0 -- -- 90
2020-09-20 01:00:00 17.5 0 Calma -- -- 0 -- -- 90
2020-09-20 00:00:00 17.9 0 Calma -- -- 0 -- -- 89
2020-09-19 23:00:00 18.2 0 Calma -- -- 0.2 -- -- 88
2020-09-19 22:00:00 18.7 0 Calma -- -- 0 -- -- 84
2020-09-19 21:00:00 19.2 0 Calma -- -- 0 -- -- 81
2020-09-19 20:00:00 20.1 0 Calma 0 Calma 0 -- -- 76
2020-09-19 19:00:00 21 0 Calma 0 Calma 0 -- -- 73
2020-09-19 18:00:00 20.8 0 Calma 0 Calma 0 -- -- 74
2020-09-19 17:00:00 23.3 0 Calma 0 Calma 0 -- -- 64
2020-09-19 16:00:00 22.7 0 Calma -- -- 0 -- -- 69
2020-09-19 15:00:00 22.4 0 Calma -- -- 0 -- -- 69
2020-09-19 14:00:00 20.1 0 Calma -- -- 0 -- -- 75
2020-09-19 13:00:00 19.2 0 Calma -- -- 0 -- -- 83
2020-09-19 12:00:00 18.5 0 Calma -- -- 0 -- -- 85
2020-09-19 11:00:00 16.6 0 Calma -- -- 0 -- -- 91
2020-09-19 10:00:00 15.6 0 Calma -- -- 0 -- -- 93
2020-09-19 09:00:00 15.1 0 Calma -- -- 0.2 -- -- 94
2020-09-19 08:00:00 15 0 Calma -- -- 0.6 -- -- 92
2020-09-19 07:00:00 15.1 0 Calma -- -- 0 -- -- 91
2020-09-19 06:00:00 15.3 0 Calma -- -- 0 -- -- 90
2020-09-19 05:00:00 15.3 0 Calma -- -- 0 -- -- 89
2020-09-19 04:00:00 15.5 0 Calma -- -- 0 -- -- 90
2020-09-19 03:00:00 15.9 0 Calma -- -- 0 -- -- 86
2020-09-19 02:00:00 16.3 0 Calma -- -- 0 -- -- 86
2020-09-19 01:00:00 17.1 0 Calma -- -- 0 -- -- 81
2020-09-19 00:00:00 18 0 Calma -- -- 0 -- -- 78
2020-09-18 23:00:00 18.6 0 Calma -- -- 0 -- -- 76
2020-09-18 22:00:00 19.8 0 Calma -- -- 0 -- -- 72
2020-09-18 21:00:00 20.4 0 Calma -- -- 0 -- -- 61
2020-09-18 20:00:00 21.5 0 Calma -- -- 0 -- -- 73
2020-09-18 19:00:00 23.7 0 Calma -- -- 0 -- -- 57
2020-09-18 18:00:00 24.1 0 Calma -- -- 0 -- -- 52
2020-09-18 17:00:00 24.8 0 Calma -- -- 0 -- -- 57
2020-09-18 16:00:00 24.7 0 Calma -- -- 0 -- -- 51
2020-09-18 15:00:00 23.9 0 Calma -- -- 0 -- -- 55
2020-09-18 14:00:00 23.2 0 Calma 9 Sur 0 -- -- 61
2020-09-18 13:00:00 21.3 2 Sudoeste 9 Sudoeste 0 -- -- 72
2020-09-18 12:00:00 19.3 0 Calma 6 Noroeste 0 -- -- 82
2020-09-18 11:00:00 16.8 0 Calma 7 Nordeste 0 -- -- 93
2020-09-18 10:00:00 16 0 Calma 6 Nordeste 0 -- -- 95
2020-09-18 09:00:00 15.9 0 Calma 5 Norte 0 -- -- 95
2020-09-18 08:00:00 16.1 0 Calma 3 Este 0 -- -- 95
2020-09-18 07:00:00 16 0 Calma 2 Nordeste 0 -- -- 93
2020-09-18 06:00:00 16.6 0 Calma 6 Noroeste 0 -- -- 94
2020-09-18 05:00:00 16.8 0 Calma 3 Noroeste 0 -- -- 94
2020-09-18 04:00:00 17.1 0 Calma 6 Sudoeste 0 -- -- 94
2020-09-18 03:00:00 17.2 0 Calma 2 Sudoeste 0 -- -- 93
2020-09-18 02:00:00 17.4 0 Calma 3 Sudoeste 0 -- -- 92
2020-09-18 01:00:00 17.4 0 Calma 15 Norte 2.2 -- -- 94
2020-09-18 00:00:00 17.7 0 Calma 5 Sudoeste 0.4 -- -- 92
2020-09-17 23:00:00 18.2 0 Calma 8 Noroeste 5.4 -- -- 90
2020-09-17 22:00:00 19.4 0 Calma 10 Sudoeste 6.6 -- -- 84
2020-09-17 21:00:00 21.3 4 Noroeste 18 Noroeste 0 -- -- 69
2020-09-17 20:00:00 22.8 4 Norte 21 Este 0 -- -- 67
2020-09-17 19:00:00 25.9 5 Sudeste 26 Este 0 -- -- 52
2020-09-17 18:00:00 28.6 6 Sudeste 22 Este 0 -- -- 41
2020-09-17 17:00:00 28.3 8 Sur 22 Sudeste 0 -- -- 42
2020-09-17 16:00:00 29.5 5 Sudeste 21 Oeste 0 -- -- 43
2020-09-17 15:00:00 27.2 6 Sudeste 22 Sudeste 0 -- -- 44
2020-09-17 14:00:00 26.2 3 Sudeste 15 Este 0 -- -- 47
2020-09-17 13:00:00 25.9 6 Sudoeste 26 Sudoeste 0 -- -- 52
2020-09-17 12:00:00 21.3 0 Calma 11 Sudoeste 0 -- -- 72
2020-09-17 11:00:00 18 0 Calma 6 Sudeste 0 -- -- 84
2020-09-17 10:00:00 17 0 Calma 4 Norte 0 -- -- 87
2020-09-17 09:00:00 16.3 0 Calma 3 Norte 0 -- -- 87
2020-09-17 08:00:00 16.3 0 Calma 3 Noroeste 0 -- -- 87
2020-09-17 07:00:00 16.5 0 Calma 5 Oeste 0 -- -- 85
2020-09-17 06:00:00 16.6 0 Calma 5 Norte 0 -- -- 86
2020-09-17 05:00:00 16.7 0 Calma 3 Noroeste 0 -- -- 84
2020-09-17 04:00:00 17.4 0 Calma 7 Sur 0 -- -- 81
2020-09-17 03:00:00 18 3 Sur 18 Sudoeste 0 -- -- 78
2020-09-17 02:00:00 17.4 4 Norte 12 Sur 0 -- -- 82
2020-09-17 01:00:00 17.4 0 Calma 3 Noroeste 0 -- -- 80
2020-09-17 00:00:00 17.9 0 Calma 4 Norte 0 -- -- 77
2020-09-16 23:00:00 19.3 0 Calma 0 Calma 0 -- -- 72
2020-09-16 22:00:00 20.8 0 Calma 3 Sudoeste 0 -- -- 70
2020-09-16 21:00:00 22.4 0 Calma 0 Calma 0 -- -- 63
2020-09-16 20:00:00 25 0 Calma 9 Noroeste 0 -- -- 56
2020-09-16 19:00:00 27.8 4 Noroeste 13 Oeste 0 -- -- 44
2020-09-16 18:00:00 29.3 0 Calma 10 Oeste 0 -- -- 37
2020-09-16 17:00:00 30.2 2 Noroeste 11 Noroeste 0 -- -- 37
2020-09-16 16:00:00 30.7 3 Oeste 16 Noroeste 0 -- -- 37
2020-09-16 15:00:00 31.5 3 Oeste 12 Noroeste 0 -- -- 38
2020-09-16 14:00:00 28.7 2 Sur 9 Noroeste 0 -- -- 39
2020-09-16 13:00:00 24.8 2 Sudoeste 10 Sudoeste 0 -- -- 53
2020-09-16 12:00:00 21.3 2 Oeste 6 Sudoeste 0 -- -- 64
2020-09-16 11:00:00 16.4 0 Calma 5 Sur 0 -- -- 81
2020-09-16 10:00:00 12.6 0 Calma 5 Sudoeste 0 -- -- 95
2020-09-16 09:00:00 10.4 0 Calma 2 Noroeste 0 -- -- 95
2020-09-16 08:00:00 10.2 0 Calma -- -- 0 -- -- 90
2020-09-16 07:00:00 10.9 0 Calma -- -- 0 -- -- 90
2020-09-16 06:00:00 11.6 0 Calma -- -- 0 -- -- 89
2020-09-16 05:00:00 12.4 0 Calma -- -- 0 -- -- 88
2020-09-16 04:00:00 13.2 0 Calma 4 Oeste 0 -- -- 87
2020-09-16 03:00:00 14 0 Calma 2 Norte 0 -- -- 86
2020-09-16 02:00:00 14.9 0 Calma 0 Calma 0 -- -- 84
2020-09-16 01:00:00 15.9 0 Calma 0 Calma 0 -- -- 81
2020-09-16 00:00:00 17.3 0 Calma 3 Nordeste 0 -- -- 78
2020-09-15 23:00:00 18.9 0 Calma 4 Sudoeste 0 -- -- 76
2020-09-15 22:00:00 20.6 0 Calma 7 Sudoeste 0 -- -- 68
2020-09-15 21:00:00 23.3 4 Sudoeste 9 Sudoeste 0 -- -- 58
2020-09-15 20:00:00 25.5 5 Oeste 12 Noroeste 0 -- -- 51
2020-09-15 19:00:00 26.8 0 Calma 17 Sudoeste 0 -- -- 50
2020-09-15 18:00:00 27.1 3 Oeste 21 Sudoeste 0 -- -- 50
2020-09-15 17:00:00 28.8 7 Sudoeste 21 Sudoeste 0 -- -- 44
2020-09-15 16:00:00 28.8 6 Oeste 27 Sudoeste 0 -- -- 44
2020-09-15 15:00:00 28.2 12 Sudoeste 27 Sudoeste 0 -- -- 41
2020-09-15 14:00:00 25.8 0 Calma 9 Sudoeste 0 -- -- 52
2020-09-15 13:00:00 24.8 0 Calma 5 Sudeste 0 -- -- 59
2020-09-15 12:00:00 20.3 0 Calma 4 Sudeste 0 -- -- 78
2020-09-15 11:00:00 15.6 0 Calma 4 Noroeste 0 -- -- 94
2020-09-15 10:00:00 13.1 0 Calma 2 Norte 0 -- -- 97
2020-09-15 09:00:00 11.7 0 Calma 2 Nordeste 0 -- -- 95
2020-09-15 08:00:00 11.6 0 Calma 0 Calma 0 -- -- 93
2020-09-15 07:00:00 12.1 0 Calma 0 Calma 0 -- -- 91
2020-09-15 06:00:00 12.9 0 Calma 0 Calma 0 -- -- 90
2020-09-15 05:00:00 13.7 0 Calma 3 Norte 0 -- -- 90
2020-09-15 04:00:00 14.7 0 Calma 2 Norte 0 -- -- 89
2020-09-15 03:00:00 15.9 0 Calma 3 Este 0 -- -- 88
2020-09-15 02:00:00 17 0 Calma 0 Calma 0 -- -- 87
2020-09-15 01:00:00 17.9 0 Calma 4 Norte 0 -- -- 88
2020-09-15 00:00:00 18.3 0 Calma 5 Nordeste 0 -- -- 88
2020-09-14 23:00:00 19.1 0 Calma 4 Norte 0 -- -- 85
2020-09-14 22:00:00 20.4 0 Calma 5 Noroeste 0 -- -- 82
2020-09-14 21:00:00 22.1 0 Calma 9 Sudoeste 0 -- -- 74
2020-09-14 20:00:00 23.6 0 Calma 16 Sudoeste 0 -- -- 72
2020-09-14 19:00:00 24.4 4 Oeste 26 Sudoeste 0.2 -- -- 63
2020-09-14 18:00:00 26.1 5 Oeste 24 Sudoeste 0.4 -- -- 65
2020-09-14 17:00:00 28.7 4 Oeste 26 Sudoeste 0 -- -- 53
2020-09-14 16:00:00 29.2 7 Oeste 24 Sudoeste 0 -- -- 50
2020-09-14 15:00:00 28.6 9 Oeste 29 Sudoeste 0 -- -- 51
2020-09-14 14:00:00 26.1 0 Calma 10 Nordeste 0 -- -- 55
2020-09-14 13:00:00 22.4 0 Calma 3 Nordeste 0 -- -- 65
2020-09-14 12:00:00 19 0 Calma 2 Nordeste 0 -- -- 75
2020-09-14 11:00:00 17.4 0 Calma 0 Calma 0 -- -- 82
2020-09-14 10:00:00 16.6 0 Calma 0 Calma 0 -- -- 84
2020-09-14 09:00:00 16.2 0 Calma 3 Noroeste 0 -- -- 85
2020-09-14 08:00:00 16 0 Calma 0 Calma 0 -- -- 84
2020-09-14 07:00:00 15.9 0 Calma 6 Nordeste 0 -- -- 83
2020-09-14 06:00:00 16 0 Calma 4 Sudoeste 0 -- -- 82
2020-09-14 05:00:00 15.8 0 Calma 6 Este 0 -- -- 82
2020-09-14 04:00:00 15.5 0 Calma 5 Nordeste 0 -- -- 83
2020-09-14 03:00:00 16.1 0 Calma 4 Nordeste 0 -- -- 80
2020-09-14 02:00:00 16.9 0 Calma 0 Calma 0 -- -- 77
2020-09-14 01:00:00 17.9 0 Calma 2 Norte 0 -- -- 74
2020-09-14 00:00:00 19.7 0 Calma 4 Noroeste 0 -- -- 70
2020-09-13 23:00:00 21.1 0 Calma 4 Noroeste 0 -- -- 68
2020-09-13 22:00:00 22.8 0 Calma 7 Sudoeste 0 -- -- 63
2020-09-13 21:00:00 25.2 0 Calma 4 Nordeste 0 -- -- 55
2020-09-13 20:00:00 28.4 0 Calma 15 Sudoeste 0 -- -- 48
2020-09-13 19:00:00 31.8 8 Sudoeste 23 Sudoeste 0 -- -- 30
2020-09-13 18:00:00 33.3 12 Sudoeste 24 Sudoeste 0 -- -- 27
2020-09-13 17:00:00 35.1 2 Sur 10 Norte 0 -- -- 27
2020-09-13 16:00:00 32.9 0 Calma 12 Oeste 0 -- -- 35
2020-09-13 15:00:00 34.1 4 Oeste 15 Oeste 0 -- -- 29
2020-09-13 14:00:00 30.6 2 Sudoeste 8 Sudoeste 0 -- -- 42
2020-09-13 13:00:00 29.6 2 Sudoeste 7 Sudoeste 0 -- -- 38
2020-09-13 12:00:00 23.9 0 Calma 7 Sur 0 -- -- 56
2020-09-13 11:00:00 19.5 0 Calma 5 Sudoeste 0 -- -- 73
2020-09-13 10:00:00 13.9 0 Calma 5 Nordeste 0 -- -- 92
2020-09-13 09:00:00 11.9 0 Calma 2 Noroeste 0 -- -- 92
2020-09-13 08:00:00 12.1 0 Calma 3 Norte 0 -- -- 89
2020-09-13 07:00:00 12.8 0 Calma 4 Nordeste 0 -- -- 90
2020-09-13 06:00:00 13.6 0 Calma 3 Norte 0 -- -- 88
2020-09-13 05:00:00 14.6 0 Calma 3 Nordeste 0 -- -- 87
2020-09-13 04:00:00 15.5 0 Calma -- -- 0 -- -- 85
2020-09-13 03:00:00 16.6 0 Calma -- -- 0 -- -- 82
2020-09-13 02:00:00 18 0 Calma 0 Calma 0 -- -- 79
2020-09-13 01:00:00 19.6 0 Calma 3 Norte 0 -- -- 75
2020-09-13 00:00:00 21.3 0 Calma 5 Norte 0 -- -- 71
2020-09-12 23:00:00 23.3 0 Calma 4 Nordeste 0 -- -- 66
2020-09-12 22:00:00 25.6 4 Norte 11 Norte 0 -- -- 59
2020-09-12 21:00:00 27.5 0 Calma 13 Norte 0 -- -- 49
2020-09-12 20:00:00 30.6 8 Norte 22 Nordeste 0 -- -- 41
2020-09-12 19:00:00 32.5 5 Nordeste 17 Norte 0 -- -- 32
2020-09-12 18:00:00 33.9 0 Calma 11 Sudoeste 0 -- -- 28
2020-09-12 17:00:00 36 2 Norte 12 Noroeste 0 -- -- 26
2020-09-12 16:00:00 34.9 2 Oeste 12 Sudoeste 0 -- -- 30
2020-09-12 15:00:00 31.3 3 Sur 9 Sudoeste 0 -- -- 43
2020-09-12 14:00:00 28.9 2 Sur 8 Sudeste 0 -- -- 47
2020-09-12 13:00:00 25.7 2 Sur 8 Sudeste 0 -- -- 57
2020-09-12 12:00:00 21.7 2 Noroeste 6 Noroeste 0 -- -- 71
2020-09-12 11:00:00 18 3 Sudoeste 8 Sudoeste 0 -- -- 87
2020-09-12 10:00:00 15.9 4 Nordeste 6 Nordeste 0 -- -- 92
2020-09-12 09:00:00 15 0 Calma 2 Norte 0 -- -- 91
2020-09-12 08:00:00 14.4 0 Calma 4 Sudoeste 0 -- -- 91
2020-09-12 07:00:00 13.6 0 Calma -- -- 0 -- -- 91
2020-09-12 06:00:00 13.9 0 Calma -- -- 0 -- -- 87
2020-09-12 05:00:00 14.8 0 Calma 2 Sudoeste 0 -- -- 85
2020-09-12 04:00:00 15.6 0 Calma 5 Nordeste 0 -- -- 83
2020-09-12 03:00:00 16.1 0 Calma 6 Norte 0 -- -- 82
2020-09-12 02:00:00 17.1 0 Calma 3 Norte 0 -- -- 80
2020-09-12 01:00:00 18.4 0 Calma 4 Norte 0 -- -- 76
2020-09-12 00:00:00 20 0 Calma 0 Calma 0 -- -- 71
2020-09-11 23:00:00 21.7 0 Calma 8 Norte 0 -- -- 67
2020-09-11 22:00:00 23.5 0 Calma 9 Norte 0 -- -- 63
2020-09-11 21:00:00 26.6 2 Norte 14 Norte 0 -- -- 52
2020-09-11 20:00:00 27.9 4 Norte 12 Norte 0 -- -- 43
2020-09-11 19:00:00 30.2 0 Calma 12 Sudoeste 0 -- -- 40
2020-09-11 18:00:00 32.7 3 Oeste 16 Norte 0 -- -- 26
2020-09-11 17:00:00 34.9 4 Sudoeste 15 Noroeste 0 -- -- 24
2020-09-11 16:00:00 34.7 3 Noroeste 10 Sur 0 -- -- 26
2020-09-11 15:00:00 33.1 3 Sudoeste 12 Sudoeste 0 -- -- 33
2020-09-11 14:00:00 29.7 2 Sur 9 Sur 0 -- -- 39
2020-09-11 13:00:00 24.8 0 Calma 8 Sudoeste 0 -- -- 58
2020-09-11 12:00:00 20 0 Calma 6 Oeste 0 -- -- 73
2020-09-11 11:00:00 15.6 0 Calma 8 Noroeste 0 -- -- 93
2020-09-11 10:00:00 14 0 Calma 4 Noroeste 0 -- -- 95
2020-09-11 09:00:00 12.9 0 Calma 0 Calma 0 -- -- 95
2020-09-11 08:00:00 12.3 0 Calma 3 Norte 0 -- -- 95
2020-09-11 07:00:00 12.2 0 Calma 2 Norte 0 -- -- 89
2020-09-11 06:00:00 12.9 0 Calma 2 Noroeste 0 -- -- 88
2020-09-11 05:00:00 13.8 0 Calma -- -- 0 -- -- 87
2020-09-11 04:00:00 14.6 0 Calma 2 Norte 0 -- -- 85
2020-09-11 03:00:00 15.5 0 Calma 3 Oeste 0 -- -- 84
2020-09-11 02:00:00 16.5 0 Calma 5 Norte 0 -- -- 84
2020-09-11 01:00:00 17.9 0 Calma 0 Calma 0 -- -- 79
2020-09-11 00:00:00 19.6 0 Calma 5 Noroeste 0 -- -- 75
2020-09-10 23:00:00 21.1 0 Calma 5 Sudoeste 0 -- -- 68
2020-09-10 22:00:00 23.2 0 Calma 9 Norte 0 -- -- 63
2020-09-10 21:00:00 26.1 3 Norte 17 Noroeste 0 -- -- 54
2020-09-10 20:00:00 28.6 6 Norte 21 Norte 0 -- -- 47
2020-09-10 19:00:00 29.8 5 Nordeste 17 Norte 0 -- -- 37
2020-09-10 18:00:00 31.1 7 Norte 18 Norte 0 -- -- 34
2020-09-10 17:00:00 33.4 3 Noroeste 18 Noroeste 0 -- -- 27
2020-09-10 16:00:00 33.2 4 Sur 11 Oeste 0 -- -- 27
2020-09-10 15:00:00 31.6 0 Calma 8 Oeste 0 -- -- 32
2020-09-10 14:00:00 28.4 0 Calma 6 Sur 0 -- -- 46
2020-09-10 13:00:00 24.6 3 Oeste 9 Sudoeste 0 -- -- 55
2020-09-10 12:00:00 21.7 0 Calma 9 Este 0 -- -- 65
2020-09-10 11:00:00 18.2 0 Calma 6 Norte 0 -- -- 80
2020-09-10 10:00:00 16.5 2 Nordeste 6 Nordeste 0 -- -- 87
2020-09-10 09:00:00 15.9 0 Calma 5 Nordeste 0 -- -- 91
2020-09-10 08:00:00 15.9 3 Norte 8 Norte 0 -- -- 91
2020-09-10 07:00:00 16.2 2 Norte 8 Nordeste 0 -- -- 90
2020-09-10 06:00:00 16.3 0 Calma 3 Norte 0 -- -- 88
2020-09-10 05:00:00 16 0 Calma 4 Sudoeste 0 -- -- 87
2020-09-10 04:00:00 15.7 0 Calma -- -- 0 -- -- 88
2020-09-10 03:00:00 15.6 0 Calma -- -- 0 -- -- 87
2020-09-10 02:00:00 16.5 0 Calma 5 Noroeste 0 -- -- 82
2020-09-10 01:00:00 17.5 0 Calma 8 Noroeste 0 -- -- 83
2020-09-10 00:00:00 19.2 4 Noroeste 13 Noroeste -- -- -- 78
2020-09-09 23:00:00 20.8 0 Calma 10 Nordeste 0 -- -- 71
2020-09-09 22:00:00 22.3 0 Calma 8 Noroeste 0 -- -- 68
2020-09-09 21:00:00 25.3 0 Calma 17 Norte 0 -- -- 56
2020-09-09 20:00:00 28.1 5 Norte 17 Noroeste 0 -- -- 47
2020-09-09 19:00:00 29.7 8 Norte 16 Nordeste 0 -- -- 34
2020-09-09 18:00:00 30.8 8 Norte 19 Norte 0 -- -- 29
2020-09-09 17:00:00 33.2 5 Noroeste 17 Sudeste 0 -- -- 27
2020-09-09 16:00:00 33.3 3 Sudeste 12 Sur 0 -- -- 25
2020-09-09 15:00:00 31.4 3 Sudoeste 10 Sudoeste 0 -- -- 25
2020-09-09 14:00:00 29.4 2 Sudeste 7 Oeste 0 -- -- 34
2020-09-09 13:00:00 25.5 0 Calma 5 Sudeste 0 -- -- 47
2020-09-09 12:00:00 21.1 0 Calma 3 Sur 0 -- -- 56
2020-09-09 11:00:00 16.5 0 Calma 3 Sudoeste 0 -- -- 71
2020-09-09 10:00:00 10.9 0 Calma 3 Nordeste 0 -- -- 94
2020-09-09 09:00:00 8.7 0 Calma 3 Norte 0 -- -- 92
2020-09-09 08:00:00 8.9 0 Calma 2 Norte 0 -- -- 89
2020-09-09 07:00:00 9.8 0 Calma 4 Norte 0 -- -- 88
2020-09-09 06:00:00 10.7 0 Calma 4 Norte 0 -- -- 88
2020-09-09 05:00:00 11.7 0 Calma -- -- 0 -- -- 86
2020-09-09 04:00:00 12.7 0 Calma 0 Calma 0 -- -- 85
2020-09-09 03:00:00 13.7 0 Calma 0 Calma 0 -- -- 84
2020-09-09 02:00:00 14.8 0 Calma 2 Norte 0 -- -- 81
2020-09-09 01:00:00 16.3 0 Calma 0 Calma 0 -- -- 77
2020-09-09 00:00:00 18.1 0 Calma 4 Noroeste 0 -- -- 72
2020-09-08 23:00:00 20.3 0 Calma 9 Este 0 -- -- 67
2020-09-08 22:00:00 22.3 0 Calma 14 Norte 0 -- -- 62
2020-09-08 21:00:00 24.9 3 Norte 11 Norte 0 -- -- 52
2020-09-08 20:00:00 27.3 4 Norte 14 Oeste 0 -- -- 40
2020-09-08 19:00:00 29.1 2 Oeste 15 Sudoeste 0 -- -- 30
2020-09-08 18:00:00 30 2 Oeste 15 Sudoeste 0 -- -- 28
2020-09-08 17:00:00 31.2 0 Calma 13 Sudoeste 0 -- -- 26
2020-09-08 16:00:00 30.9 3 Oeste 11 Sudoeste 0 -- -- 30
2020-09-08 15:00:00 29 0 Calma 9 Nordeste 0 -- -- 30
2020-09-08 14:00:00 27.1 2 Sur 9 Nordeste 0 -- -- 35
2020-09-08 13:00:00 22.9 0 Calma 7 Sur 0 -- -- 52
2020-09-08 12:00:00 17.3 0 Calma 5 Noroeste 0 -- -- 73
2020-09-08 11:00:00 12.1 0 Calma 5 Sur 0 -- -- 93
2020-09-08 10:00:00 11.3 0 Calma 3 Norte 0 -- -- 95
2020-09-08 09:00:00 10.2 0 Calma 2 Noroeste 0 -- -- 94
2020-09-08 08:00:00 9.5 0 Calma 4 Nordeste 0 -- -- 93
2020-09-08 07:00:00 8.6 0 Calma 3 Norte 0 -- -- 92
2020-09-08 06:00:00 9.2 0 Calma 3 Norte 0 -- -- 89
2020-09-08 05:00:00 10 0 Calma 0 Calma 0 -- -- 88
2020-09-08 04:00:00 11 0 Calma 3 Norte 0 -- -- 87
2020-09-08 03:00:00 12.3 0 Calma 0 Calma 0 -- -- 84
2020-09-08 02:00:00 13.8 0 Calma -- -- 0 -- -- 82
2020-09-08 01:00:00 15.1 0 Calma 4 Sudoeste 0 -- -- 80
2020-09-08 00:00:00 16.4 0 Calma 4 Sudoeste -- -- -- 75
2020-09-07 23:00:00 18.2 0 Calma 6 Sudoeste 0 -- -- 71
2020-09-07 22:00:00 19.9 0 Calma 11 Sudoeste 0 -- -- 67
2020-09-07 21:00:00 22.3 0 Calma 22 Norte 0 -- -- 58
2020-09-07 20:00:00 24.9 9 Norte 26 Norte 0 -- -- 49
2020-09-07 19:00:00 27 9 Norte 23 Norte 0 -- -- 40
2020-09-07 18:00:00 27.9 7 Nordeste 17 Norte 0 -- -- 36
2020-09-07 17:00:00 29.7 5 Nordeste 14 Nordeste 0 -- -- 34
2020-09-07 16:00:00 29.2 8 Nordeste 23 Nordeste 0 -- -- 37
2020-09-07 15:00:00 27.3 5 Nordeste 12 Norte 0 -- -- 38
2020-09-07 14:00:00 24.9 3 Noroeste 11 Norte 0 -- -- 45
2020-09-07 13:00:00 22.4 2 Noroeste 10 Noroeste 0 -- -- 53
2020-09-07 12:00:00 18.7 3 Sur 9 Nordeste 0 -- -- 65
2020-09-07 11:00:00 15.3 0 Calma 4 Este 0 -- -- 76
2020-09-07 10:00:00 10.3 0 Calma 0 Calma 0 -- -- 93
2020-09-07 09:00:00 7.9 0 Calma 2 Norte 0 -- -- 93
2020-09-07 08:00:00 7.9 0 Calma 3 Norte 0 -- -- 90
2020-09-07 07:00:00 8.6 0 Calma 2 Norte 0 -- -- 90
2020-09-07 06:00:00 9.2 0 Calma 3 Norte 0 -- -- 89
2020-09-07 05:00:00 10.1 0 Calma 2 Norte 0 -- -- 88
2020-09-07 04:00:00 11.1 0 Calma 4 Sudoeste 0 -- -- 86
2020-09-07 03:00:00 12 0 Calma 4 Sudoeste 0 -- -- 83
2020-09-07 02:00:00 13.1 0 Calma 5 Sudoeste 0 -- -- 82
2020-09-07 01:00:00 14.2 0 Calma 8 Sudoeste 0 -- -- 80
2020-09-07 00:00:00 15.6 0 Calma 12 Noroeste 0 -- -- 73
2020-09-06 23:00:00 16.8 0 Calma 10 Noroeste 0 -- -- 72
2020-09-06 22:00:00 18.3 3 Noroeste 23 Noroeste 0 -- -- 67
2020-09-06 21:00:00 20.5 6 Noroeste 18 Norte 0 -- -- 61
2020-09-06 20:00:00 22.7 7 Noroeste 25 Norte 0 -- -- 56
2020-09-06 19:00:00 24.2 9 Norte 33 Norte 0 -- -- 52
2020-09-06 18:00:00 25.6 13 Norte 31 Norte 0 -- -- 49
2020-09-06 17:00:00 28.2 11 Norte 24 Norte 0 -- -- 45
2020-09-06 16:00:00 28.4 7 Norte 20 Nordeste 0 -- -- 45
2020-09-06 15:00:00 27.2 6 Norte 19 Nordeste 0 -- -- 46
2020-09-06 14:00:00 25.9 6 Norte 16 Nordeste 0 -- -- 52
2020-09-06 13:00:00 24 3 Nordeste 12 Norte 0 -- -- 59
2020-09-06 12:00:00 21.9 4 Este 10 Nordeste 0 -- -- 63
2020-09-06 11:00:00 18.4 0 Calma 9 Este 0 -- -- 78
2020-09-06 10:00:00 15.3 0 Calma 3 Norte 0 -- -- 87
2020-09-06 09:00:00 14.3 0 Calma 3 Nordeste 0 -- -- 91
2020-09-06 08:00:00 13.7 0 Calma -- -- 0 -- -- 93
2020-09-06 07:00:00 13 0 Calma 4 Norte 0 -- -- 93
2020-09-06 06:00:00 12.1 0 Calma 2 Norte 0 -- -- 93
2020-09-06 05:00:00 12.3 0 Calma 0 Calma 0 -- -- 88
2020-09-06 04:00:00 13.2 0 Calma 2 Noroeste 0 -- -- 88
2020-09-06 03:00:00 14.2 0 Calma 3 Norte 0 -- -- 86
2020-09-06 02:00:00 15.3 0 Calma 6 Sudoeste 0 -- -- 84
2020-09-06 01:00:00 16.3 3 Sudoeste 9 Sudoeste 0 -- -- 85
2020-09-06 00:00:00 17.1 0 Calma 7 Oeste 0 -- -- 80
2020-09-05 23:00:00 18.2 0 Calma 13 Norte 0 -- -- 77
2020-09-05 22:00:00 19.5 0 Calma 9 Noroeste 0 -- -- 73
2020-09-05 21:00:00 21.4 3 Oeste 20 Norte 0 -- -- 68
2020-09-05 20:00:00 23.7 9 Norte 26 Noroeste 0 -- -- 61
2020-09-05 19:00:00 25.3 15 Norte 31 Norte 0 -- -- 57
2020-09-05 18:00:00 27 10 Norte 32 Nordeste 0 -- -- 53
2020-09-05 17:00:00 29.1 12 Norte 31 Norte 0 -- -- 48
2020-09-05 16:00:00 30.6 9 Norte 22 Norte 0 -- -- 44
2020-09-05 15:00:00 30.1 4 Norte 20 Nordeste 0 -- -- 47
2020-09-05 14:00:00 28.4 6 Nordeste 18 Norte 0 -- -- 51
2020-09-05 13:00:00 26.1 4 Norte 13 Norte 0 -- -- 57
2020-09-05 12:00:00 23.2 2 Sudeste 10 Nordeste 0 -- -- 65
2020-09-05 11:00:00 20.6 3 Sudeste 8 Sur 0 -- -- 75
2020-09-05 10:00:00 17.2 0 Calma 4 Nordeste 0 -- -- 86
2020-09-05 09:00:00 16.1 0 Calma 4 Norte 0 -- -- 88
2020-09-05 08:00:00 15.4 0 Calma 4 Nordeste 0 -- -- 86
2020-09-05 07:00:00 16.7 0 Calma 5 Noroeste 0 -- -- 83
2020-09-05 06:00:00 16.8 0 Calma 0 Calma 0 -- -- 83
2020-09-05 05:00:00 16.3 0 Calma -- -- 0 -- -- 83
2020-09-05 04:00:00 15.5 0 Calma 3 Sudoeste 0 -- -- 81
2020-09-05 03:00:00 14.9 0 Calma 3 Sudoeste 0 -- -- 81
2020-09-05 02:00:00 15.4 0 Calma 2 Norte 0 -- -- 76
2020-09-05 01:00:00 16.9 0 Calma 4 Sudoeste 0 -- -- 72
2020-09-05 00:00:00 18.5 0 Calma 6 Sudoeste 0 -- -- 65
2020-09-04 23:00:00 20.6 0 Calma 0 Calma 0 -- -- 61
2020-09-04 22:00:00 23.1 0 Calma 9 Norte 0 -- -- 57
2020-09-04 21:00:00 26.8 5 Norte 24 Norte 0 -- -- 45
2020-09-04 20:00:00 30.3 2 Oeste 17 Noroeste 0 -- -- 32
2020-09-04 19:00:00 32.1 4 Oeste 21 Noroeste 0 -- -- 29
2020-09-04 18:00:00 33.5 6 Oeste 23 Oeste 0 -- -- 28
2020-09-04 17:00:00 35.2 7 Oeste 24 Sudoeste 0 -- -- 24
2020-09-04 16:00:00 35.6 8 Noroeste 22 Noroeste 0 -- -- 26
2020-09-04 15:00:00 34.6 4 Sudeste 12 Sudoeste 0 -- -- 29
2020-09-04 14:00:00 31.6 0 Calma 5 Sudeste 0 -- -- 36
2020-09-04 13:00:00 27.2 0 Calma 11 Sur 0 -- -- 47
2020-09-04 12:00:00 23.7 2 Sudoeste 9 Sudoeste 0 -- -- 54
2020-09-04 11:00:00 19.1 0 Calma 3 Oeste 0 -- -- 71
2020-09-04 10:00:00 13.2 0 Calma 2 Este 0 -- -- 92
2020-09-04 09:00:00 10.7 0 Calma -- -- 0 -- -- 92
2020-09-04 08:00:00 10.8 0 Calma 0 Calma 0 -- -- 89
2020-09-04 07:00:00 11.5 0 Calma 0 Calma 0 -- -- 88
2020-09-04 06:00:00 12.1 0 Calma 2 Nordeste 0 -- -- 87
2020-09-04 05:00:00 13 0 Calma 0 Calma 0 -- -- 86
2020-09-04 04:00:00 13.9 0 Calma 0 Calma 0 -- -- 84
2020-09-04 03:00:00 14.7 0 Calma 4 Noroeste 0 -- -- 83
2020-09-04 02:00:00 15.8 0 Calma 3 Norte 0 -- -- 79
2020-09-04 01:00:00 17 0 Calma 4 Nordeste 0 -- -- 76
2020-09-04 00:00:00 18.4 0 Calma 5 Norte 0 -- -- 74
2020-09-03 23:00:00 20.1 0 Calma 5 Norte 0 -- -- 69
2020-09-03 22:00:00 22.7 0 Calma 4 Noroeste 0 -- -- 60
2020-09-03 21:00:00 26.2 0 Calma 10 Noroeste 0 -- -- 48
2020-09-03 20:00:00 29.4 0 Calma 12 Noroeste 0 -- -- 41
2020-09-03 19:00:00 31 6 Noroeste 15 Noroeste 0 -- -- 29
2020-09-03 18:00:00 32 4 Noroeste 15 Oeste 0 -- -- 29
2020-09-03 17:00:00 33.9 2 Noroeste 14 Oeste 0 -- -- 24
2020-09-03 16:00:00 34.1 4 Sudoeste 14 Sur 0 -- -- 26
2020-09-03 15:00:00 32.9 4 Sudeste 16 Sudoeste 0 -- -- 29
2020-09-03 14:00:00 30 0 Calma 8 Sur 0 -- -- 37
2020-09-03 13:00:00 25.5 3 Sur 10 Sur 0 -- -- 56
2020-09-03 12:00:00 21.1 2 Sudoeste 7 Sudoeste 0 -- -- 70
2020-09-03 11:00:00 16.6 0 Calma 4 Nordeste 0 -- -- 86
2020-09-03 10:00:00 12.8 0 Calma 0 Calma 0 -- -- 96
2020-09-03 09:00:00 11.7 0 Calma 0 Calma 0 -- -- 96
2020-09-03 08:00:00 11 0 Calma 0 Calma 0 -- -- 94
2020-09-03 07:00:00 10.8 0 Calma 0 Calma 0 -- -- 89
2020-09-03 06:00:00 11.5 0 Calma -- -- 0 -- -- 89
2020-09-03 05:00:00 12.2 0 Calma -- -- 0 -- -- 88
2020-09-03 04:00:00 13 0 Calma 0 Calma 0 -- -- 87
2020-09-03 03:00:00 13.9 0 Calma 0 Calma 0 -- -- 85
2020-09-03 02:00:00 15 0 Calma 4 Noroeste 0 -- -- 83
2020-09-03 01:00:00 16.4 0 Calma 3 Norte 0 -- -- 81
2020-09-03 00:00:00 18 0 Calma 6 Sudoeste 0 -- -- 77
2020-09-02 23:00:00 19.6 0 Calma 4 Sur 0 -- -- 73
2020-09-02 22:00:00 22 0 Calma 13 Norte 0 -- -- 66
2020-09-02 21:00:00 24.7 6 Norte 16 Nordeste 0 -- -- 55
2020-09-02 20:00:00 26.7 5 Norte 19 Norte 0 -- -- 45
2020-09-02 19:00:00 28 8 Nordeste 20 Norte 0 -- -- 41
2020-09-02 18:00:00 28.6 3 Noroeste 11 Noroeste 0 -- -- 41
2020-09-02 17:00:00 30.4 3 Oeste 10 Oeste 0 -- -- 36
2020-09-02 16:00:00 29.2 3 Nordeste 13 Este 0 -- -- 38
2020-09-02 15:00:00 26.3 4 Sur 11 Sudoeste 0 -- -- 48
2020-09-02 14:00:00 23 2 Sur 10 Sur 0 -- -- 57
2020-09-02 13:00:00 20.3 3 Sudeste 12 Noroeste 0 -- -- 66
2020-09-02 12:00:00 17.1 2 Noroeste 10 Noroeste 0 -- -- 79
2020-09-02 11:00:00 13.6 2 Norte 6 Nordeste 0 -- -- 89
2020-09-02 10:00:00 11.7 0 Calma 3 Noroeste 0 -- -- 91
2020-09-02 09:00:00 10 0 Calma 4 Norte 0 -- -- 95
2020-09-02 08:00:00 8.8 0 Calma -- -- 0 -- -- 91
2020-09-02 07:00:00 8.9 0 Calma 0 Calma 0 -- -- 91
2020-09-02 06:00:00 9.4 0 Calma -- -- 0 -- -- 89
2020-09-02 05:00:00 10.1 0 Calma -- -- 0 -- -- 87
2020-09-02 04:00:00 11.1 0 Calma 3 Nordeste 0 -- -- 87
2020-09-02 03:00:00 12.1 0 Calma 5 Noroeste 0 -- -- 84
2020-09-02 02:00:00 13.3 0 Calma 4 Sudoeste 0 -- -- 83
2020-09-02 01:00:00 14.5 2 Sudoeste 8 Sudoeste 0 -- -- 81
2020-09-02 00:00:00 15.5 0 Calma 6 Sudoeste 0 -- -- 77
2020-09-01 23:00:00 16.7 0 Calma 14 Noroeste 0 -- -- 74
2020-09-01 22:00:00 18.4 2 Noroeste 20 Noroeste 0 -- -- 68
2020-09-01 21:00:00 20.5 5 Norte 25 Norte 0 -- -- 62
2020-09-01 20:00:00 22.5 8 Norte 23 Noroeste 0 -- -- 57
2020-09-01 19:00:00 24.3 10 Norte 29 Norte 0 -- -- 51
2020-09-01 18:00:00 25.8 10 Norte 22 Norte 0 -- -- 44
2020-09-01 17:00:00 27.9 9 Norte 22 Noroeste 0 -- -- 38
2020-09-01 16:00:00 28.1 6 Norte 20 Noroeste 0 -- -- 35
2020-09-01 15:00:00 27.5 9 Norte 19 Norte 0 -- -- 33
2020-09-01 14:00:00 25.7 7 Nordeste 19 Nordeste 0 -- -- 39
2020-09-01 13:00:00 23.1 3 Noroeste 9 Sudoeste 0 -- -- 53
2020-09-01 12:00:00 20.3 2 Sudoeste 6 Sudoeste 0 -- -- 62
2020-09-01 11:00:00 16.9 0 Calma 8 Sudoeste 0 -- -- 71
2020-09-01 10:00:00 13.9 2 Sudoeste 6 Sudoeste 0 -- -- 84
2020-09-01 09:00:00 12.1 0 Calma 3 Nordeste 0 -- -- 90
2020-09-01 08:00:00 12.2 0 Calma -- -- 0 -- -- 88
2020-09-01 07:00:00 12.7 0 Calma 3 Norte 0 -- -- 86
2020-09-01 06:00:00 13.3 0 Calma 3 Norte 0 -- -- 86
2020-09-01 05:00:00 13.9 0 Calma 4 Oeste 0 -- -- 84
2020-09-01 04:00:00 14.4 0 Calma 4 Norte 0 -- -- 85
2020-09-01 03:00:00 14.9 0 Calma 0 Calma 0 -- -- 82
2020-09-01 02:00:00 15.3 0 Calma 2 Noroeste 0 -- -- 81
2020-09-01 01:00:00 15.8 0 Calma 3 Sudoeste 0 -- -- 79
2020-09-01 00:00:00 16.6 0 Calma -- -- 0 -- -- 76
2020-08-31 23:00:00 17.6 0 Calma -- -- 0 -- -- 73
2020-08-31 22:00:00 18.7 0 Calma 6 Noroeste 0 -- -- 65
2020-08-31 21:00:00 21.4 3 Noroeste 9 Noroeste 0 -- -- 55
2020-08-31 20:00:00 24.1 0 Calma 10 Sudoeste 0 -- -- 40
2020-08-31 19:00:00 25.4 0 Calma 17 Noroeste 0 -- -- 35
2020-08-31 18:00:00 26.2 2 Sudoeste 24 Sudoeste 0 -- -- 32
2020-08-31 17:00:00 26.9 7 Sudoeste 15 Sudoeste 0 -- -- 32
2020-08-31 16:00:00 27.6 5 Sudeste 17 Sudoeste 0 -- -- 34
2020-08-31 15:00:00 25.8 6 Sudoeste 17 Sudoeste 0 -- -- 33
2020-08-31 14:00:00 24.5 3 Este 7 Sudeste 0 -- -- 43
2020-08-31 13:00:00 21.5 0 Calma 8 Noroeste 0 -- -- 49
2020-08-31 12:00:00 16.9 3 Sudoeste 7 Sur 0 -- -- 66
2020-08-31 11:00:00 11.9 0 Calma 5 Sur 0 -- -- 82
2020-08-31 10:00:00 7.6 0 Calma 4 Este 0 -- -- 94
2020-08-31 09:00:00 5.9 0 Calma 3 Norte 0 -- -- 94
2020-08-31 08:00:00 5 0 Calma 2 Nordeste 0 -- -- 91
2020-08-31 07:00:00 5.8 0 Calma 4 Nordeste 0 -- -- 90
2020-08-31 06:00:00 6.6 0 Calma 0 Calma 0 -- -- 88
2020-08-31 05:00:00 7.5 0 Calma 4 Norte 0 -- -- 88
2020-08-31 04:00:00 8.4 0 Calma 0 Calma 0 -- -- 87
2020-08-31 03:00:00 9.3 0 Calma -- -- 0 -- -- 85
2020-08-31 02:00:00 10.5 0 Calma 0 Calma 0 -- -- 83
2020-08-31 01:00:00 12.1 0 Calma 7 Sudoeste 0 -- -- 79
2020-08-31 00:00:00 13.2 3 Sudoeste 8 Sudoeste 0 -- -- 76
2020-08-30 23:00:00 14.5 3 Norte 12 Norte 0 -- -- 71
2020-08-30 22:00:00 16.2 3 Noroeste 18 Norte 0 -- -- 64
2020-08-30 21:00:00 17.9 7 Norte 27 Norte 0 -- -- 59
2020-08-30 20:00:00 19.5 10 Norte 25 Norte 0 -- -- 55
2020-08-30 19:00:00 20.6 13 Norte 28 Norte 0 -- -- 50
2020-08-30 18:00:00 21.5 8 Norte 21 Norte 0 -- -- 47
2020-08-30 17:00:00 22.8 8 Norte 26 Norte 0 -- -- 42
2020-08-30 16:00:00 23.3 5 Norte 25 Nordeste 0 -- -- 39
2020-08-30 15:00:00 23.3 5 Norte 19 Nordeste 0 -- -- 40
2020-08-30 14:00:00 22 8 Norte 25 Norte 0 -- -- 43
2020-08-30 13:00:00 20.1 9 Norte 23 Norte 0 -- -- 48
2020-08-30 12:00:00 18 7 Norte 23 Norte 0 -- -- 58
2020-08-30 11:00:00 15.7 3 Sudoeste 8 Sudoeste 0 -- -- 76
2020-08-30 10:00:00 12.4 0 Calma 4 Sudoeste 0 -- -- 88
2020-08-30 09:00:00 11.2 0 Calma 4 Norte 0 -- -- 92
2020-08-30 08:00:00 10.6 0 Calma 6 Sudoeste 0 -- -- 91
2020-08-30 07:00:00 10.7 0 Calma 5 Sudoeste 0 -- -- 93
2020-08-30 06:00:00 10.1 0 Calma 0 Calma 0 -- -- 93
2020-08-30 05:00:00 9.6 0 Calma 3 Sudoeste 0 -- -- 88
2020-08-30 04:00:00 10.8 0 Calma 6 Sudoeste 0 -- -- 85
2020-08-30 03:00:00 11.7 0 Calma 4 Sudoeste 0 -- -- 86
2020-08-30 02:00:00 11.2 0 Calma 7 Noroeste 0 -- -- 87
2020-08-30 01:00:00 12.2 0 Calma 9 Norte 0 -- -- 82
2020-08-30 00:00:00 13 0 Calma 10 Nordeste 0 -- -- 80
2020-08-29 23:00:00 13.7 0 Calma 8 Norte 0 -- -- 76
2020-08-29 22:00:00 14.9 0 Calma 15 Norte 0 -- -- 68
2020-08-29 21:00:00 16.6 0 Calma 19 Nordeste 0 -- -- 62
2020-08-29 20:00:00 17.9 6 Norte 30 Norte 0 -- -- 58
2020-08-29 19:00:00 18.8 12 Norte 31 Norte 0 -- -- 53
2020-08-29 18:00:00 19.9 17 Norte 37 Norte 0 -- -- 51
2020-08-29 17:00:00 20.6 10 Norte 36 Nordeste 0 -- -- 52
2020-08-29 16:00:00 21.1 8 Norte 32 Norte 0 -- -- 54
2020-08-29 15:00:00 20.8 9 Norte 19 Norte 0.2 -- -- 62
2020-08-29 14:00:00 18.6 12 Norte 31 Noroeste 0.2 -- -- 70
2020-08-29 13:00:00 18.9 8 Nordeste 20 Norte 0 -- -- 66
2020-08-29 12:00:00 16.6 4 Norte 16 Norte 0 -- -- 76
2020-08-29 11:00:00 15.1 2 Sudoeste 9 Sur 0 -- -- 83
2020-08-29 10:00:00 13.9 2 Sudoeste 6 Sudoeste 0 -- -- 90
2020-08-29 09:00:00 12.7 4 Sudoeste 8 Sudoeste 0 -- -- 94
2020-08-29 08:00:00 12.6 0 Calma 6 Sur 0 -- -- 94
2020-08-29 07:00:00 12.5 0 Calma 4 Sudoeste 0 -- -- 90
2020-08-29 06:00:00 13.3 0 Calma 5 Sudoeste 1.4 -- -- 91
2020-08-29 05:00:00 13.4 2 Sudoeste 5 Sudoeste 0 -- -- 87
2020-08-29 04:00:00 13.2 0 Calma 4 Sur 0 -- -- 86
2020-08-29 03:00:00 13.2 0 Calma 8 Sudoeste 0 -- -- 85
2020-08-29 02:00:00 14 0 Calma 7 Oeste 0 -- -- 79
2020-08-29 01:00:00 13.9 0 Calma 6 Noroeste 0 -- -- 78
2020-08-29 00:00:00 13.9 0 Calma 6 Norte 0 -- -- 78
2020-08-28 23:00:00 14.9 0 Calma 7 Norte 0 -- -- 71
2020-08-28 22:00:00 16.3 0 Calma 15 Norte 0 -- -- 67
2020-08-28 21:00:00 17.8 6 Noroeste 25 Noroeste 0 -- -- 60
2020-08-28 20:00:00 19.1 7 Noroeste 27 Noroeste 0 -- -- 57
2020-08-28 19:00:00 20.6 13 Noroeste 28 Noroeste 0 -- -- 51
2020-08-28 18:00:00 21.8 11 Norte 29 Norte 0 -- -- 53
2020-08-28 17:00:00 24 11 Noroeste 25 Noroeste 0 -- -- 44
2020-08-28 16:00:00 23.8 10 Noroeste 23 Norte 0 -- -- 45
2020-08-28 15:00:00 24.1 6 Noroeste 27 Noroeste 0 -- -- 47
2020-08-28 14:00:00 22.7 9 Noroeste 27 Noroeste 0 -- -- 47
2020-08-28 13:00:00 20.8 7 Oeste 24 Norte 0 -- -- 61
2020-08-28 12:00:00 20.1 3 Este 9 Este 0 -- -- 59
2020-08-28 11:00:00 17.9 4 Noroeste 13 Noroeste 0 -- -- 70
2020-08-28 10:00:00 15.6 0 Calma 6 Noroeste 0 -- -- 82
2020-08-28 09:00:00 14.5 0 Calma 4 Nordeste 0 -- -- 86
2020-08-28 08:00:00 15.5 0 Calma 9 Norte 0 -- -- 83
2020-08-28 07:00:00 16.5 2 Norte 10 Norte 0 -- -- 86
2020-08-28 06:00:00 17.2 0 Calma 9 Nordeste 0 -- -- 85
2020-08-28 05:00:00 17.2 0 Calma 4 Norte 0 -- -- 90
2020-08-28 04:00:00 17.9 0 Calma 6 Norte 0 -- -- 87
2020-08-28 03:00:00 18.3 0 Calma 4 Norte 0 -- -- 88
2020-08-28 02:00:00 19.4 0 Calma 2 Noroeste 0 -- -- 82
2020-08-28 01:00:00 20.8 0 Calma 10 Noroeste 0 -- -- 79
2020-08-28 00:00:00 21.1 0 Calma 6 Noroeste 0 -- -- 78